sensor_id;sensor_type;location;lat;lon;timestamp;temperature;humidity
25716;DHT22;13573;50.936;4.328;2023-06-14T00:02:13;20.90;91.70
25716;DHT22;13573;50.936;4.328;2023-06-14T00:04:41;20.80;91.70
25716;DHT22;13573;50.936;4.328;2023-06-14T00:07:09;20.80;91.90
25716;DHT22;13573;50.936;4.328;2023-06-14T00:09:35;20.70;91.80
25716;DHT22;13573;50.936;4.328;2023-06-14T00:12:02;20.70;91.80
25716;DHT22;13573;50.936;4.328;2023-06-14T00:14:29;20.70;91.80
25716;DHT22;13573;50.936;4.328;2023-06-14T00:16:55;20.90;91.90
25716;DHT22;13573;50.936;4.328;2023-06-14T00:19:25;20.70;92.10
25716;DHT22;13573;50.936;4.328;2023-06-14T00:21:51;20.40;92.30
25716;DHT22;13573;50.936;4.328;2023-06-14T00:24:19;20.50;92.30
25716;DHT22;13573;50.936;4.328;2023-06-14T00:26:46;20.40;92.50
25716;DHT22;13573;50.936;4.328;2023-06-14T00:29:13;20.30;92.50
25716;DHT22;13573;50.936;4.328;2023-06-14T00:31:39;20.20;92.80
25716;DHT22;13573;50.936;4.328;2023-06-14T00:34:06;20.10;94.80
25716;DHT22;13573;50.936;4.328;2023-06-14T00:36:33;20.20;92.90
25716;DHT22;13573;50.936;4.328;2023-06-14T00:39:00;20.30;93.00
25716;DHT22;13573;50.936;4.328;2023-06-14T00:41:26;20.10;95.30
25716;DHT22;13573;50.936;4.328;2023-06-14T00:43:53;20.10;95.10
25716;DHT22;13573;50.936;4.328;2023-06-14T00:46:22;20.40;93.10
25716;DHT22;13573;50.936;4.328;2023-06-14T00:48:49;20.20;93.00
25716;DHT22;13573;50.936;4.328;2023-06-14T00:51:15;20.20;93.20
25716;DHT22;13573;50.936;4.328;2023-06-14T00:53:42;20.00;95.60
25716;DHT22;13573;50.936;4.328;2023-06-14T00:56:11;20.10;93.30
25716;DHT22;13573;50.936;4.328;2023-06-14T00:58:39;20.00;93.40
25716;DHT22;13573;50.936;4.328;2023-06-14T01:01:06;20.00;93.30
25716;DHT22;13573;50.936;4.328;2023-06-14T01:03:33;20.00;93.30
25716;DHT22;13573;50.936;4.328;2023-06-14T01:06:10;19.70;95.90
25716;DHT22;13573;50.936;4.328;2023-06-14T01:08:47;19.80;94.00
25716;DHT22;13573;50.936;4.328;2023-06-14T01:11:16;19.90;96.30
25716;DHT22;13573;50.936;4.328;2023-06-14T01:13:46;19.90;96.30
25716;DHT22;13573;50.936;4.328;2023-06-14T01:16:13;20.20;93.80
25716;DHT22;13573;50.936;4.328;2023-06-14T01:18:40;19.90;96.40
25716;DHT22;13573;50.936;4.328;2023-06-14T01:21:27;20.00;94.30
25716;DHT22;13573;50.936;4.328;2023-06-14T01:23:54;19.90;94.50
25716;DHT22;13573;50.936;4.328;2023-06-14T01:26:22;19.90;94.70
25716;DHT22;13573;50.936;4.328;2023-06-14T01:28:50;19.90;94.80
25716;DHT22;13573;50.936;4.328;2023-06-14T01:31:20;19.90;94.80
25716;DHT22;13573;50.936;4.328;2023-06-14T01:33:49;19.90;97.00
25716;DHT22;13573;50.936;4.328;2023-06-14T01:36:19;20.00;94.90
25716;DHT22;13573;50.936;4.328;2023-06-14T01:38:46;19.80;95.20
25716;DHT22;13573;50.936;4.328;2023-06-14T01:41:16;19.90;95.20
25716;DHT22;13573;50.936;4.328;2023-06-14T01:43:45;19.60;98.20
25716;DHT22;13573;50.936;4.328;2023-06-14T01:46:13;19.70;95.90
25716;DHT22;13573;50.936;4.328;2023-06-14T01:48:41;19.80;98.10
25716;DHT22;13573;50.936;4.328;2023-06-14T01:51:07;19.80;95.70
25716;DHT22;13573;50.936;4.328;2023-06-14T01:53:34;19.70;96.20
25716;DHT22;13573;50.936;4.328;2023-06-14T01:56:02;19.70;96.10
25716;DHT22;13573;50.936;4.328;2023-06-14T01:58:29;19.60;96.50
25716;DHT22;13573;50.936;4.328;2023-06-14T02:00:57;19.50;96.70
25716;DHT22;13573;50.936;4.328;2023-06-14T02:03:24;19.20;99.40
25716;DHT22;13573;50.936;4.328;2023-06-14T02:05:50;19.30;97.20
25716;DHT22;13573;50.936;4.328;2023-06-14T02:08:17;18.90;97.40
25716;DHT22;13573;50.936;4.328;2023-06-14T02:10:44;19.40;97.50
25716;DHT22;13573;50.936;4.328;2023-06-14T02:13:11;19.30;99.90
25716;DHT22;13573;50.936;4.328;2023-06-14T02:15:38;19.40;97.90
25716;DHT22;13573;50.936;4.328;2023-06-14T02:18:04;19.70;97.70
25716;DHT22;13573;50.936;4.328;2023-06-14T02:20:31;19.40;97.80
25716;DHT22;13573;50.936;4.328;2023-06-14T02:22:58;19.60;98.30
25716;DHT22;13573;50.936;4.328;2023-06-14T02:25:25;19.10;98.60
25716;DHT22;13573;50.936;4.328;2023-06-14T02:27:54;19.30;98.60
25716;DHT22;13573;50.936;4.328;2023-06-14T02:30:21;19.00;98.90
25716;DHT22;13573;50.936;4.328;2023-06-14T02:32:48;18.90;99.30
25716;DHT22;13573;50.936;4.328;2023-06-14T02:35:17;18.80;99.90
25716;DHT22;13573;50.936;4.328;2023-06-14T02:37:44;18.90;99.80
25716;DHT22;13573;50.936;4.328;2023-06-14T02:40:10;18.90;99.80
25716;DHT22;13573;50.936;4.328;2023-06-14T02:42:39;19.00;99.90
25716;DHT22;13573;50.936;4.328;2023-06-14T02:45:06;18.80;99.90
25716;DHT22;13573;50.936;4.328;2023-06-14T02:47:33;18.80;99.90
25716;DHT22;13573;50.936;4.328;2023-06-14T02:50:00;18.60;99.90
25716;DHT22;13573;50.936;4.328;2023-06-14T02:52:26;18.60;99.90
25716;DHT22;13573;50.936;4.328;2023-06-14T02:54:54;18.60;99.90
25716;DHT22;13573;50.936;4.328;2023-06-14T02:57:22;18.60;99.90
25716;DHT22;13573;50.936;4.328;2023-06-14T02:59:49;18.60;99.90
25716;DHT22;13573;50.936;4.328;2023-06-14T03:02:16;18.40;99.90
25716;DHT22;13573;50.936;4.328;2023-06-14T03:04:42;18.40;99.90
25716;DHT22;13573;50.936;4.328;2023-06-14T03:07:10;18.10;99.90
25716;DHT22;13573;50.936;4.328;2023-06-14T03:09:39;18.10;99.90
25716;DHT22;13573;50.936;4.328;2023-06-14T03:12:06;18.30;99.90
25716;DHT22;13573;50.936;4.328;2023-06-14T03:14:35;18.30;99.90
25716;DHT22;13573;50.936;4.328;2023-06-14T03:17:03;18.20;99.90
25716;DHT22;13573;50.936;4.328;2023-06-14T03:19:30;18.20;99.90
25716;DHT22;13573;50.936;4.328;2023-06-14T03:21:57;18.10;99.90
25716;DHT22;13573;50.936;4.328;2023-06-14T03:24:24;18.10;99.90
25716;DHT22;13573;50.936;4.328;2023-06-14T03:26:53;18.00;99.90
25716;DHT22;13573;50.936;4.328;2023-06-14T03:29:20;18.10;99.90
25716;DHT22;13573;50.936;4.328;2023-06-14T03:31:57;18.10;99.90
25716;DHT22;13573;50.936;4.328;2023-06-14T03:34:24;18.10;99.90
25716;DHT22;13573;50.936;4.328;2023-06-14T03:36:50;18.20;99.90
25716;DHT22;13573;50.936;4.328;2023-06-14T03:39:17;18.10;99.90
25716;DHT22;13573;50.936;4.328;2023-06-14T03:41:44;18.20;99.90
25716;DHT22;13573;50.936;4.328;2023-06-14T03:44:11;18.20;99.90
25716;DHT22;13573;50.936;4.328;2023-06-14T03:46:37;18.00;99.90
25716;DHT22;13573;50.936;4.328;2023-06-14T03:49:04;18.10;99.90
25716;DHT22;13573;50.936;4.328;2023-06-14T03:51:31;18.00;99.90
25716;DHT22;13573;50.936;4.328;2023-06-14T03:53:57;18.40;99.90
25716;DHT22;13573;50.936;4.328;2023-06-14T03:56:24;18.10;99.90
25716;DHT22;13573;50.936;4.328;2023-06-14T03:58:51;18.20;99.90
25716;DHT22;13573;50.936;4.328;2023-06-14T04:01:17;18.00;99.90
25716;DHT22;13573;50.936;4.328;2023-06-14T04:03:44;17.90;99.90
25716;DHT22;13573;50.936;4.328;2023-06-14T04:06:11;17.70;99.90
25716;DHT22;13573;50.936;4.328;2023-06-14T04:08:37;17.90;99.90
25716;DHT22;13573;50.936;4.328;2023-06-14T04:11:05;17.60;99.90
25716;DHT22;13573;50.936;4.328;2023-06-14T04:13:32;17.80;99.90
25716;DHT22;13573;50.936;4.328;2023-06-14T04:16:01;17.70;99.90
25716;DHT22;13573;50.936;4.328;2023-06-14T04:18:27;17.70;99.90
25716;DHT22;13573;50.936;4.328;2023-06-14T04:20:54;17.80;99.90
25716;DHT22;13573;50.936;4.328;2023-06-14T04:23:22;17.90;99.90
25716;DHT22;13573;50.936;4.328;2023-06-14T04:25:49;17.90;99.90
25716;DHT22;13573;50.936;4.328;2023-06-14T04:28:16;18.20;99.90
25716;DHT22;13573;50.936;4.328;2023-06-14T04:30:43;17.80;99.90
25716;DHT22;13573;50.936;4.328;2023-06-14T04:33:11;17.90;99.90
25716;DHT22;13573;50.936;4.328;2023-06-14T04:35:37;17.90;99.90
25716;DHT22;13573;50.936;4.328;2023-06-14T04:38:04;18.00;99.90
25716;DHT22;13573;50.936;4.328;2023-06-14T04:40:33;18.50;99.90
25716;DHT22;13573;50.936;4.328;2023-06-14T04:43:00;18.10;99.90
25716;DHT22;13573;50.936;4.328;2023-06-14T04:45:27;18.00;99.90
25716;DHT22;13573;50.936;4.328;2023-06-14T04:47:55;18.00;99.90
25716;DHT22;13573;50.936;4.328;2023-06-14T04:50:23;18.20;99.90
25716;DHT22;13573;50.936;4.328;2023-06-14T04:52:50;18.40;99.90
25716;DHT22;13573;50.936;4.328;2023-06-14T04:55:17;18.70;99.90
25716;DHT22;13573;50.936;4.328;2023-06-14T04:57:45;18.70;99.90
25716;DHT22;13573;50.936;4.328;2023-06-14T05:00:11;19.00;99.90
25716;DHT22;13573;50.936;4.328;2023-06-14T05:02:39;19.10;99.90
25716;DHT22;13573;50.936;4.328;2023-06-14T05:05:06;19.20;99.90
25716;DHT22;13573;50.936;4.328;2023-06-14T05:07:33;19.50;99.90
25716;DHT22;13573;50.936;4.328;2023-06-14T05:10:00;19.60;99.90
25716;DHT22;13573;50.936;4.328;2023-06-14T05:12:26;19.80;99.90
25716;DHT22;13573;50.936;4.328;2023-06-14T05:14:53;20.00;99.90
25716;DHT22;13573;50.936;4.328;2023-06-14T05:17:20;19.90;99.90
25716;DHT22;13573;50.936;4.328;2023-06-14T05:19:46;19.90;99.90
25716;DHT22;13573;50.936;4.328;2023-06-14T05:22:13;20.40;99.90
25716;DHT22;13573;50.936;4.328;2023-06-14T05:24:39;21.10;99.90
25716;DHT22;13573;50.936;4.328;2023-06-14T05:27:07;21.30;99.70
25716;DHT22;13573;50.936;4.328;2023-06-14T05:29:34;21.90;99.40
25716;DHT22;13573;50.936;4.328;2023-06-14T05:32:02;22.00;97.50
25716;DHT22;13573;50.936;4.328;2023-06-14T05:34:29;22.50;96.80
25716;DHT22;13573;50.936;4.328;2023-06-14T05:36:55;23.10;96.40
25716;DHT22;13573;50.936;4.328;2023-06-14T05:39:22;23.40;95.20
25716;DHT22;13573;50.936;4.328;2023-06-14T05:41:50;23.00;95.10
25716;DHT22;13573;50.936;4.328;2023-06-14T05:44:16;23.00;94.30
25716;DHT22;13573;50.936;4.328;2023-06-14T05:46:43;22.20;95.30
25716;DHT22;13573;50.936;4.328;2023-06-14T05:49:10;22.00;95.60
25716;DHT22;13573;50.936;4.328;2023-06-14T05:51:38;22.00;96.00
25716;DHT22;13573;50.936;4.328;2023-06-14T05:54:04;21.60;96.50
25716;DHT22;13573;50.936;4.328;2023-06-14T05:56:31;22.50;97.70
25716;DHT22;13573;50.936;4.328;2023-06-14T05:58:57;22.50;95.40
25716;DHT22;13573;50.936;4.328;2023-06-14T06:01:24;22.40;95.70
25716;DHT22;13573;50.936;4.328;2023-06-14T06:03:51;23.50;96.20
25716;DHT22;13573;50.936;4.328;2023-06-14T06:06:17;23.70;94.50
25716;DHT22;13573;50.936;4.328;2023-06-14T06:08:45;24.80;93.80
25716;DHT22;13573;50.936;4.328;2023-06-14T06:11:11;24.90;92.50
25716;DHT22;13573;50.936;4.328;2023-06-14T06:13:38;24.90;91.60
25716;DHT22;13573;50.936;4.328;2023-06-14T06:16:06;24.70;91.80
25716;DHT22;13573;50.936;4.328;2023-06-14T06:18:33;24.20;92.50
25716;DHT22;13573;50.936;4.328;2023-06-14T06:21:00;24.70;92.50
25716;DHT22;13573;50.936;4.328;2023-06-14T06:23:29;25.10;92.90
25716;DHT22;13573;50.936;4.328;2023-06-14T06:25:55;26.00;92.20
25716;DHT22;13573;50.936;4.328;2023-06-14T06:28:22;26.80;90.90
25716;DHT22;13573;50.936;4.328;2023-06-14T06:30:49;26.60;90.30
25716;DHT22;13573;50.936;4.328;2023-06-14T06:33:16;26.40;90.40
25716;DHT22;13573;50.936;4.328;2023-06-14T06:35:43;26.90;90.50
25716;DHT22;13573;50.936;4.328;2023-06-14T06:38:10;26.50;90.20
25716;DHT22;13573;50.936;4.328;2023-06-14T06:40:36;26.90;89.50
25716;DHT22;13573;50.936;4.328;2023-06-14T06:43:03;28.30;89.40
25716;DHT22;13573;50.936;4.328;2023-06-14T06:45:29;28.30;87.10
25716;DHT22;13573;50.936;4.328;2023-06-14T06:47:56;28.20;86.90
25716;DHT22;13573;50.936;4.328;2023-06-14T06:50:23;28.60;88.40
25716;DHT22;13573;50.936;4.328;2023-06-14T06:52:51;28.70;87.50
25716;DHT22;13573;50.936;4.328;2023-06-14T06:55:18;28.90;85.70
25716;DHT22;13573;50.936;4.328;2023-06-14T06:57:44;28.20;87.20
25716;DHT22;13573;50.936;4.328;2023-06-14T07:00:11;28.20;86.40
25716;DHT22;13573;50.936;4.328;2023-06-14T07:02:38;26.90;88.20
25716;DHT22;13573;50.936;4.328;2023-06-14T07:05:05;28.10;86.90
25716;DHT22;13573;50.936;4.328;2023-06-14T07:07:32;28.00;86.60
25716;DHT22;13573;50.936;4.328;2023-06-14T07:09:58;28.00;87.00
25716;DHT22;13573;50.936;4.328;2023-06-14T07:12:27;28.20;85.90
25716;DHT22;13573;50.936;4.328;2023-06-14T07:14:53;27.50;87.10
25716;DHT22;13573;50.936;4.328;2023-06-14T07:17:20;27.70;86.80
25716;DHT22;13573;50.936;4.328;2023-06-14T07:19:46;26.90;87.20
25716;DHT22;13573;50.936;4.328;2023-06-14T07:22:13;26.60;89.20
25716;DHT22;13573;50.936;4.328;2023-06-14T07:24:40;27.20;88.90
25716;DHT22;13573;50.936;4.328;2023-06-14T07:27:08;27.50;89.60
25716;DHT22;13573;50.936;4.328;2023-06-14T07:29:34;28.60;87.50
25716;DHT22;13573;50.936;4.328;2023-06-14T07:32:01;29.30;85.70
25716;DHT22;13573;50.936;4.328;2023-06-14T07:34:28;29.40;84.90
25716;DHT22;13573;50.936;4.328;2023-06-14T07:36:55;29.40;83.90
25716;DHT22;13573;50.936;4.328;2023-06-14T07:39:21;28.20;85.70
25716;DHT22;13573;50.936;4.328;2023-06-14T07:41:49;29.00;87.00
25716;DHT22;13573;50.936;4.328;2023-06-14T07:44:16;30.60;86.30
25716;DHT22;13573;50.936;4.328;2023-06-14T07:46:42;31.60;80.70
25716;DHT22;13573;50.936;4.328;2023-06-14T07:49:09;32.10;81.50
25716;DHT22;13573;50.936;4.328;2023-06-14T07:51:36;30.30;82.20
25716;DHT22;13573;50.936;4.328;2023-06-14T07:54:03;30.40;81.40
25716;DHT22;13573;50.936;4.328;2023-06-14T07:56:29;30.30;81.30
25716;DHT22;13573;50.936;4.328;2023-06-14T07:58:57;30.30;83.70
25716;DHT22;13573;50.936;4.328;2023-06-14T08:01:24;30.90;81.00
25716;DHT22;13573;50.936;4.328;2023-06-14T08:03:51;31.70;80.10
25716;DHT22;13573;50.936;4.328;2023-06-14T08:06:18;32.10;80.50
25716;DHT22;13573;50.936;4.328;2023-06-14T08:08:45;33.70;80.10
25716;DHT22;13573;50.936;4.328;2023-06-14T08:11:11;32.90;77.20
25716;DHT22;13573;50.936;4.328;2023-06-14T08:13:38;31.70;80.50
25716;DHT22;13573;50.936;4.328;2023-06-14T08:16:05;31.70;79.70
25716;DHT22;13573;50.936;4.328;2023-06-14T08:18:31;32.20;78.00
25716;DHT22;13573;50.936;4.328;2023-06-14T08:20:58;32.40;79.40
25716;DHT22;13573;50.936;4.328;2023-06-14T08:23:25;33.60;79.00
25716;DHT22;13573;50.936;4.328;2023-06-14T08:25:51;33.60;76.40
25716;DHT22;13573;50.936;4.328;2023-06-14T08:28:18;34.20;78.00
25716;DHT22;13573;50.936;4.328;2023-06-14T08:30:45;35.30;74.50
25716;DHT22;13573;50.936;4.328;2023-06-14T08:33:11;35.70;74.60
25716;DHT22;13573;50.936;4.328;2023-06-14T08:35:38;36.20;74.70
25716;DHT22;13573;50.936;4.328;2023-06-14T08:38:05;36.30;70.70
25716;DHT22;13573;50.936;4.328;2023-06-14T08:40:34;35.00;73.10
25716;DHT22;13573;50.936;4.328;2023-06-14T08:43:02;35.10;74.10
25716;DHT22;13573;50.936;4.328;2023-06-14T08:45:29;35.40;72.80
25716;DHT22;13573;50.936;4.328;2023-06-14T08:47:56;32.80;75.00
25716;DHT22;13573;50.936;4.328;2023-06-14T08:50:24;33.90;75.70
25716;DHT22;13573;50.936;4.328;2023-06-14T08:52:59;34.20;73.80
25716;DHT22;13573;50.936;4.328;2023-06-14T08:55:28;34.40;73.50
25716;DHT22;13573;50.936;4.328;2023-06-14T08:57:56;34.20;75.20
25716;DHT22;13573;50.936;4.328;2023-06-14T09:00:25;35.30;73.70
25716;DHT22;13573;50.936;4.328;2023-06-14T09:02:53;35.20;72.90
25716;DHT22;13573;50.936;4.328;2023-06-14T09:05:24;35.40;73.00
25716;DHT22;13573;50.936;4.328;2023-06-14T09:07:52;35.20;73.20
25716;DHT22;13573;50.936;4.328;2023-06-14T09:10:21;33.50;71.90
25716;DHT22;13573;50.936;4.328;2023-06-14T09:12:48;32.20;74.50
25716;DHT22;13573;50.936;4.328;2023-06-14T09:15:15;30.40;77.80
25716;DHT22;13573;50.936;4.328;2023-06-14T09:17:42;30.60;77.70
25716;DHT22;13573;50.936;4.328;2023-06-14T09:20:10;31.40;77.80
25716;DHT22;13573;50.936;4.328;2023-06-14T09:22:37;30.70;77.90
25716;DHT22;13573;50.936;4.328;2023-06-14T09:25:04;30.20;78.60
25716;DHT22;13573;50.936;4.328;2023-06-14T09:27:31;31.20;79.30
25716;DHT22;13573;50.936;4.328;2023-06-14T09:29:59;31.30;78.20
25716;DHT22;13573;50.936;4.328;2023-06-14T09:32:26;32.20;76.50
25716;DHT22;13573;50.936;4.328;2023-06-14T09:34:54;32.20;76.90
25716;DHT22;13573;50.936;4.328;2023-06-14T09:37:30;33.00;75.70
25716;DHT22;13573;50.936;4.328;2023-06-14T09:39:57;33.70;75.30
25716;DHT22;13573;50.936;4.328;2023-06-14T09:42:25;34.10;73.00
25716;DHT22;13573;50.936;4.328;2023-06-14T09:44:52;34.70;71.80
25716;DHT22;13573;50.936;4.328;2023-06-14T09:47:20;34.90;71.60
25716;DHT22;13573;50.936;4.328;2023-06-14T09:49:48;35.40;72.80
25716;DHT22;13573;50.936;4.328;2023-06-14T09:52:18;36.20;71.00
25716;DHT22;13573;50.936;4.328;2023-06-14T09:54:46;35.90;69.40
25716;DHT22;13573;50.936;4.328;2023-06-14T09:57:15;34.80;69.10
25716;DHT22;13573;50.936;4.328;2023-06-14T09:59:44;32.90;71.60
25716;DHT22;13573;50.936;4.328;2023-06-14T10:02:18;32.90;73.10
25716;DHT22;13573;50.936;4.328;2023-06-14T10:04:46;32.90;73.60
25716;DHT22;13573;50.936;4.328;2023-06-14T10:07:19;33.70;72.90
25716;DHT22;13573;50.936;4.328;2023-06-14T10:09:47;35.50;70.70
25716;DHT22;13573;50.936;4.328;2023-06-14T10:12:17;35.70;70.80
25716;DHT22;13573;50.936;4.328;2023-06-14T10:14:49;35.40;70.70
25716;DHT22;13573;50.936;4.328;2023-06-14T10:17:21;35.70;68.70
25716;DHT22;13573;50.936;4.328;2023-06-14T10:19:53;35.80;68.90
25716;DHT22;13573;50.936;4.328;2023-06-14T10:22:29;34.50;69.40
25716;DHT22;13573;50.936;4.328;2023-06-14T10:24:55;34.70;68.40
25716;DHT22;13573;50.936;4.328;2023-06-14T10:27:22;32.60;70.30
25716;DHT22;13573;50.936;4.328;2023-06-14T10:30:08;32.70;68.70
25716;DHT22;13573;50.936;4.328;2023-06-14T10:32:34;33.10;69.00
25716;DHT22;13573;50.936;4.328;2023-06-14T10:35:05;33.70;68.70
25716;DHT22;13573;50.936;4.328;2023-06-14T10:37:33;33.00;68.40
25716;DHT22;13573;50.936;4.328;2023-06-14T10:40:00;33.20;68.40
25716;DHT22;13573;50.936;4.328;2023-06-14T10:42:29;33.50;67.70
25716;DHT22;13573;50.936;4.328;2023-06-14T10:44:57;34.70;68.00
25716;DHT22;13573;50.936;4.328;2023-06-14T10:47:34;35.10;66.70
25716;DHT22;13573;50.936;4.328;2023-06-14T10:50:06;36.00;66.20
25716;DHT22;13573;50.936;4.328;2023-06-14T10:52:35;36.50;63.80
25716;DHT22;13573;50.936;4.328;2023-06-14T10:55:07;35.70;62.20
25716;DHT22;13573;50.936;4.328;2023-06-14T10:57:39;35.80;64.60
25716;DHT22;13573;50.936;4.328;2023-06-14T11:00:07;37.30;62.20
25716;DHT22;13573;50.936;4.328;2023-06-14T11:03:51;36.50;63.40
25716;DHT22;13573;50.936;4.328;2023-06-14T11:05:31;37.60;62.40
25716;DHT22;13573;50.936;4.328;2023-06-14T11:10:54;37.50;62.20
25716;DHT22;13573;50.936;4.328;2023-06-14T11:13:25;36.40;62.00
25716;DHT22;13573;50.936;4.328;2023-06-14T11:15:52;36.90;61.70
25716;DHT22;13573;50.936;4.328;2023-06-14T11:18:21;36.90;60.90
25716;DHT22;13573;50.936;4.328;2023-06-14T11:20:52;37.40;60.10
25716;DHT22;13573;50.936;4.328;2023-06-14T11:23:18;37.70;61.00
25716;DHT22;13573;50.936;4.328;2023-06-14T11:25:50;38.60;60.00
25716;DHT22;13573;50.936;4.328;2023-06-14T11:28:17;36.90;60.10
25716;DHT22;13573;50.936;4.328;2023-06-14T11:30:49;36.70;62.20
25716;DHT22;13573;50.936;4.328;2023-06-14T11:33:18;37.00;61.20
25716;DHT22;13573;50.936;4.328;2023-06-14T11:35:45;37.20;62.30
25716;DHT22;13573;50.936;4.328;2023-06-14T11:38:11;36.90;60.80
25716;DHT22;13573;50.936;4.328;2023-06-14T11:40:38;37.80;61.50
25716;DHT22;13573;50.936;4.328;2023-06-14T11:43:05;36.90;59.90
25716;DHT22;13573;50.936;4.328;2023-06-14T11:45:32;35.50;61.80
25716;DHT22;13573;50.936;4.328;2023-06-14T11:47:59;36.10;61.30
25716;DHT22;13573;50.936;4.328;2023-06-14T11:50:28;36.00;62.20
25716;DHT22;13573;50.936;4.328;2023-06-14T11:52:55;37.00;60.40
25716;DHT22;13573;50.936;4.328;2023-06-14T11:55:22;37.10;60.80
25716;DHT22;13573;50.936;4.328;2023-06-14T11:57:50;38.30;59.60
25716;DHT22;13573;50.936;4.328;2023-06-14T12:00:17;38.00;60.00
25716;DHT22;13573;50.936;4.328;2023-06-14T12:02:54;36.30;61.40
25716;DHT22;13573;50.936;4.328;2023-06-14T12:05:22;37.30;60.50
25716;DHT22;13573;50.936;4.328;2023-06-14T12:07:49;36.40;60.50
25716;DHT22;13573;50.936;4.328;2023-06-14T12:10:16;36.20;61.70
25716;DHT22;13573;50.936;4.328;2023-06-14T12:12:43;37.60;61.80
25716;DHT22;13573;50.936;4.328;2023-06-14T12:15:10;38.10;59.20
25716;DHT22;13573;50.936;4.328;2023-06-14T12:17:39;38.70;58.80
25716;DHT22;13573;50.936;4.328;2023-06-14T12:20:12;39.20;58.20
25716;DHT22;13573;50.936;4.328;2023-06-14T12:25:33;35.70;59.40
25716;DHT22;13573;50.936;4.328;2023-06-14T12:28:05;36.90;59.30
25716;DHT22;13573;50.936;4.328;2023-06-14T12:30:33;37.00;59.50
25716;DHT22;13573;50.936;4.328;2023-06-14T12:33:02;37.50;59.00
25716;DHT22;13573;50.936;4.328;2023-06-14T12:35:29;38.10;56.70
25716;DHT22;13573;50.936;4.328;2023-06-14T12:37:56;38.60;56.80
25716;DHT22;13573;50.936;4.328;2023-06-14T12:40:23;39.60;56.90
25716;DHT22;13573;50.936;4.328;2023-06-14T12:42:50;37.80;58.30
25716;DHT22;13573;50.936;4.328;2023-06-14T12:45:17;38.20;58.40
25716;DHT22;13573;50.936;4.328;2023-06-14T12:47:43;38.90;57.30
25716;DHT22;13573;50.936;4.328;2023-06-14T12:50:10;38.60;57.40
25716;DHT22;13573;50.936;4.328;2023-06-14T12:52:36;37.60;59.30
25716;DHT22;13573;50.936;4.328;2023-06-14T12:55:04;37.80;58.50
25716;DHT22;13573;50.936;4.328;2023-06-14T12:57:32;37.00;59.30
25716;DHT22;13573;50.936;4.328;2023-06-14T13:00:00;36.70;58.80
25716;DHT22;13573;50.936;4.328;2023-06-14T13:02:26;37.90;59.20
25716;DHT22;13573;50.936;4.328;2023-06-14T13:04:53;36.90;58.70
25716;DHT22;13573;50.936;4.328;2023-06-14T13:07:21;36.40;59.00
25716;DHT22;13573;50.936;4.328;2023-06-14T13:09:48;36.80;59.40
25716;DHT22;13573;50.936;4.328;2023-06-14T13:12:14;37.40;58.80
25716;DHT22;13573;50.936;4.328;2023-06-14T13:14:41;38.10;57.80
25716;DHT22;13573;50.936;4.328;2023-06-14T13:17:09;39.10;56.80
25716;DHT22;13573;50.936;4.328;2023-06-14T13:19:36;40.60;56.10
25716;DHT22;13573;50.936;4.328;2023-06-14T13:22:03;40.00;55.70
25716;DHT22;13573;50.936;4.328;2023-06-14T13:24:31;40.10;56.00
25716;DHT22;13573;50.936;4.328;2023-06-14T13:26:57;39.10;56.40
25716;DHT22;13573;50.936;4.328;2023-06-14T13:29:24;39.60;56.60
25716;DHT22;13573;50.936;4.328;2023-06-14T13:31:52;40.30;56.80
25716;DHT22;13573;50.936;4.328;2023-06-14T13:34:19;39.40;56.50
25716;DHT22;13573;50.936;4.328;2023-06-14T13:36:49;39.40;55.80
25716;DHT22;13573;50.936;4.328;2023-06-14T13:39:16;39.30;56.20
25716;DHT22;13573;50.936;4.328;2023-06-14T13:41:43;38.70;56.50
25716;DHT22;13573;50.936;4.328;2023-06-14T13:44:09;35.40;58.40
25716;DHT22;13573;50.936;4.328;2023-06-14T13:46:38;35.40;58.40
25716;DHT22;13573;50.936;4.328;2023-06-14T13:49:04;36.20;57.40
25716;DHT22;13573;50.936;4.328;2023-06-14T13:51:32;36.20;57.60
25716;DHT22;13573;50.936;4.328;2023-06-14T13:53:59;36.00;57.90
25716;DHT22;13573;50.936;4.328;2023-06-14T13:56:25;35.60;58.20
25716;DHT22;13573;50.936;4.328;2023-06-14T13:58:52;34.50;58.10
25716;DHT22;13573;50.936;4.328;2023-06-14T14:03:48;35.40;57.50
25716;DHT22;13573;50.936;4.328;2023-06-14T14:06:16;36.70;57.40
25716;DHT22;13573;50.936;4.328;2023-06-14T14:08:43;37.10;56.80
25716;DHT22;13573;50.936;4.328;2023-06-14T14:11:10;35.60;56.90
25716;DHT22;13573;50.936;4.328;2023-06-14T14:13:38;35.00;57.00
25716;DHT22;13573;50.936;4.328;2023-06-14T14:16:06;33.40;58.30
25716;DHT22;13573;50.936;4.328;2023-06-14T14:18:33;33.60;57.80
25716;DHT22;13573;50.936;4.328;2023-06-14T14:20:59;33.00;59.00
25716;DHT22;13573;50.936;4.328;2023-06-14T14:23:26;31.90;59.30
25716;DHT22;13573;50.936;4.328;2023-06-14T14:25:53;31.60;59.70
25716;DHT22;13573;50.936;4.328;2023-06-14T14:28:20;31.50;60.70
25716;DHT22;13573;50.936;4.328;2023-06-14T14:30:47;30.10;64.10
25716;DHT22;13573;50.936;4.328;2023-06-14T14:33:14;30.30;62.10
25716;DHT22;13573;50.936;4.328;2023-06-14T14:35:44;29.60;63.00
25716;DHT22;13573;50.936;4.328;2023-06-14T14:38:13;30.00;62.20
25716;DHT22;13573;50.936;4.328;2023-06-14T14:40:42;30.30;61.40
25716;DHT22;13573;50.936;4.328;2023-06-14T14:43:10;30.40;61.40
25716;DHT22;13573;50.936;4.328;2023-06-14T14:45:36;30.40;62.30
25716;DHT22;13573;50.936;4.328;2023-06-14T14:48:03;30.90;61.30
25716;DHT22;13573;50.936;4.328;2023-06-14T14:50:30;31.00;61.00
25716;DHT22;13573;50.936;4.328;2023-06-14T14:52:56;30.30;60.70
25716;DHT22;13573;50.936;4.328;2023-06-14T14:55:23;29.40;61.50
25716;DHT22;13573;50.936;4.328;2023-06-14T14:57:50;28.80;63.60
25716;DHT22;13573;50.936;4.328;2023-06-14T15:00:17;29.00;63.20
25716;DHT22;13573;50.936;4.328;2023-06-14T15:02:43;28.30;66.80
25716;DHT22;13573;50.936;4.328;2023-06-14T15:05:10;28.40;63.70
25716;DHT22;13573;50.936;4.328;2023-06-14T15:10:06;29.60;61.70
25716;DHT22;13573;50.936;4.328;2023-06-14T15:12:34;29.40;63.10
25716;DHT22;13573;50.936;4.328;2023-06-14T15:15:02;28.90;65.30
25716;DHT22;13573;50.936;4.328;2023-06-14T15:17:29;29.30;63.10
25716;DHT22;13573;50.936;4.328;2023-06-14T15:19:56;28.90;62.80
25716;DHT22;13573;50.936;4.328;2023-06-14T15:22:22;29.20;63.90
25716;DHT22;13573;50.936;4.328;2023-06-14T15:24:49;29.80;63.40
25716;DHT22;13573;50.936;4.328;2023-06-14T15:27:16;29.90;63.00
25716;DHT22;13573;50.936;4.328;2023-06-14T15:29:42;29.30;64.20
25716;DHT22;13573;50.936;4.328;2023-06-14T15:32:10;29.40;63.40
25716;DHT22;13573;50.936;4.328;2023-06-14T15:34:37;29.10;65.60
25716;DHT22;13573;50.936;4.328;2023-06-14T15:37:06;29.30;63.20
25716;DHT22;13573;50.936;4.328;2023-06-14T15:39:33;29.20;63.30
25716;DHT22;13573;50.936;4.328;2023-06-14T15:42:01;29.60;63.90
25716;DHT22;13573;50.936;4.328;2023-06-14T15:44:27;29.50;63.40